Weather reports worldwide

Advertisment
Bridlington Mrsc, United Kingdom (3292): temperature & dewpoint: 13.04.2019 00:00:00 - 19.04.2019 00:00:00 (BST)Bridlington Mrsc, United Kingdom (3292): wind speed & gusts: 13.04.2019 00:00:00 - 19.04.2019 00:00:00 (BST)Bridlington Mrsc, United Kingdom (3292): wind direction: 13.04.2019 00:00:00 - 19.04.2019 00:00:00 (BST)Bridlington Mrsc, United Kingdom (3292): reduced air pressure: 13.04.2019 00:00:00 - 19.04.2019 00:00:00 (BST)Bridlington Mrsc, United Kingdom (3292): precipitation: 13.04.2019 00:00:00 - 19.04.2019 00:00:00 (BST)
Date & Time tt [°C] td [°C] ff [km/h] ff [kn] fx [km/h] fx [kn] dd ppp [hPa] rr [mm]
19.04.2019 00:00:00 7,1 5,2 9 5 - - ENE 1030,3 0,0
18.04.2019 23:00:00 8,1 6,2 13 7 - - ENE 1030,0 0,0
18.04.2019 22:00:00 8,4 6,2 11 6 - - ENE 1029,6 0,0
18.04.2019 21:00:00 9,1 6,5 24 13 - - ENE 1028,9 0,0
18.04.2019 20:00:00 9,4 6,7 21 11 - - ENE 1028,6 0,0
18.04.2019 19:00:00 9,8 6,8 21 11 - - ENE 1028,2 0,0
18.04.2019 18:00:00 10,3 7,3 22 12 - - ENE 1027,8 0,0
18.04.2019 17:00:00 10,5 7,0 18 10 - - E 1027,8 0,0
18.04.2019 16:00:00 11,3 7,3 26 14 - - E 1027,6 0,0
18.04.2019 15:00:00 12,2 7,5 24 13 - - E 1027,7 0,0
18.04.2019 14:00:00 12,5 7,5 24 13 - - E 1027,7 0,0
18.04.2019 13:00:00 12,4 7,6 21 11 - - E 1027,7 0,0
18.04.2019 12:00:00 12,7 7,8 22 12 - - E 1027,5 0,0
18.04.2019 11:00:00 13,2 7,9 18 10 - - E 1027,5 0,0
18.04.2019 10:00:00 12,8 8,3 13 7 - - E 1027,3 0,0
18.04.2019 09:00:00 11,2 8,2 15 8 - - E 1027,2 0,0
18.04.2019 08:00:00 9,6 8,6 9 5 - - NNE 1026,6 0,0
18.04.2019 07:00:00 7,7 7,0 11 6 - - ENE 1026,2 0,0
18.04.2019 06:00:00 7,6 6,8 8 4 - - E 1025,6 0,0
18.04.2019 05:00:00 8,0 7,3 15 8 - - E 1025,0 0,0
18.04.2019 04:00:00 7,8 6,7 11 6 - - E 1025,3 0,0
18.04.2019 03:00:00 8,0 6,3 16 9 - - ENE 1025,2 0,0
18.04.2019 02:00:00 8,4 6,4 21 11 - - ENE 1025,2 0,0
18.04.2019 01:00:00 8,3 6,5 15 8 - - NNE 1024,9 0,0
18.04.2019 00:00:00 8,9 6,8 13 7 - - N 1024,9 0,0
17.04.2019 23:00:00 9,0 6,7 13 7 - - NE 1025,1 0,0
17.04.2019 22:00:00 8,8 6,9 16 9 - - E 1024,8 0,0
17.04.2019 21:00:00 8,4 6,9 21 11 - - E 1024,3 0,0
17.04.2019 20:00:00 8,9 7,2 22 12 - - E 1023,6 0,0
17.04.2019 19:00:00 10,0 7,7 18 10 - - E 1023,1 0,0
17.04.2019 18:00:00 10,4 7,8 22 12 - - E 1022,8 0,0
17.04.2019 17:00:00 11,3 7,6 15 8 - - E 1023,0 0,0
17.04.2019 16:00:00 11,7 7,9 16 9 - - ENE 1022,7 0,0
17.04.2019 15:00:00 12,3 8,0 15 8 - - NE 1022,6 0,0
17.04.2019 14:00:00 12,4 7,8 16 9 - - ENE 1022,7 0,0
17.04.2019 13:00:00 11,9 7,0 21 11 - - NE 1022,7 0,0
17.04.2019 12:00:00 12,2 7,9 15 8 - - NE 1022,3 0,0
17.04.2019 11:00:00 12,1 8,2 13 7 - - NNE 1022,4 0,0
17.04.2019 10:00:00 10,5 7,4 21 11 - - ENE 1022,5 0,0
17.04.2019 09:00:00 10,2 7,2 15 8 - - NE 1021,8 0,0
17.04.2019 08:00:00 9,1 7,8 15 8 - - NE 1021,4 0,0
17.04.2019 07:00:00 6,9 5,8 13 7 - - NE 1021,3 0,0
17.04.2019 06:00:00 7,2 5,9 15 8 - - ENE 1020,9 0,0
17.04.2019 05:00:00 7,3 5,9 15 8 - - ENE 1020,7 0,0
17.04.2019 04:00:00 7,3 5,9 18 10 - - ENE 1020,6 0,0
17.04.2019 03:00:00 7,1 5,7 15 8 - - ENE 1020,8 0,0
17.04.2019 02:00:00 7,3 5,7 16 9 - - ENE 1021,0 0,0
17.04.2019 01:00:00 7,3 5,8 21 11 - - ENE 1021,2 0,0
17.04.2019 00:00:00 7,3 5,8 26 14 - - E 1021,1 0,0
16.04.2019 23:00:00 7,3 5,7 28 15 - - E 1020,9 0,0
16.04.2019 22:00:00 7,3 5,7 28 15 - - E 1020,9 0,0
16.04.2019 21:00:00 7,5 5,7 29 16 - - E 1020,9 0,0
16.04.2019 20:00:00 7,6 5,8 31 17 - - E 1020,3 0,0
16.04.2019 19:00:00 7,8 5,7 29 16 - - E 1019,8 0,0
16.04.2019 18:00:00 8,2 6,0 31 17 - - E 1019,5 0,0
16.04.2019 17:00:00 8,7 6,2 29 16 - - E 1019,3 0,0
16.04.2019 16:00:00 9,2 6,3 29 16 - - E 1019,1 0,0
16.04.2019 15:00:00 9,5 6,4 29 16 - - E 1019,2 0,0
16.04.2019 14:00:00 9,9 6,4 29 16 - - E 1019,1 0,0
16.04.2019 13:00:00 9,9 6,6 28 15 - - E 1018,7 0,0
16.04.2019 12:00:00 9,8 6,6 28 15 - - E 1018,9 0,0
16.04.2019 11:00:00 9,6 6,6 24 13 - - ESE 1018,8 0,0
16.04.2019 10:00:00 9,4 6,8 29 16 - - E 1018,3 0,0
16.04.2019 09:00:00 8,9 6,6 28 15 - - E 1018,0 0,0
16.04.2019 08:00:00 8,6 6,6 34 18 - - E 1017,4 0,0
16.04.2019 07:00:00 8,0 6,3 24 13 - - E 1017,6 0,0
16.04.2019 06:00:00 7,9 6,2 21 11 - - E 1017,6 0,0
16.04.2019 05:00:00 8,0 6,4 21 11 - - E 1017,5 0,0
16.04.2019 04:00:00 8,0 6,3 28 15 - - E 1017,6 0,0
16.04.2019 03:00:00 8,1 6,3 31 17 - - E 1017,7 0,0
16.04.2019 02:00:00 8,0 6,5 34 18 - - E 1018,0 0,0
16.04.2019 01:00:00 7,9 6,6 31 17 - - E 1018,5 0,0
16.04.2019 00:00:00 7,7 6,6 26 14 - - ESE 1018,8 0,0
15.04.2019 23:00:00 7,4 6,4 24 13 - - E 1019,1 0,0
15.04.2019 22:00:00 7,4 6,3 22 12 - - E 1019,4 0,0
15.04.2019 21:00:00 7,4 6,2 29 16 - - E 1019,7 0,0
15.04.2019 20:00:00 7,5 6,1 31 17 - - E 1019,7 0,0
15.04.2019 19:00:00 7,7 6,0 34 18 46 25 ESE 1019,6 0,0
15.04.2019 18:00:00 7,8 6,0 39 21 48 26 ESE 1020,0 0,0
15.04.2019 17:00:00 7,9 5,8 39 21 48 26 ESE 1020,4 0,0
15.04.2019 16:00:00 8,0 5,9 35 19 - - ESE 1021,2 0,0
15.04.2019 15:00:00 8,2 5,5 34 18 - - SE 1022,0 0,0
15.04.2019 14:00:00 8,4 5,5 37 20 50 27 ESE 1022,5 0,0
15.04.2019 13:00:00 8,3 5,0 35 19 - - SE 1023,3 0,0
15.04.2019 12:00:00 9,5 4,7 39 21 46 25 ESE 1024,1 0,0
15.04.2019 11:00:00 8,8 4,7 39 21 46 25 ESE 1024,5 0,0
15.04.2019 10:00:00 9,2 4,8 37 20 - - ESE 1025,3 0,0
15.04.2019 09:00:00 7,8 4,0 39 21 48 26 ESE 1025,7 0,0
15.04.2019 08:00:00 7,5 4,2 41 22 46 25 ESE 1025,8 0,0
15.04.2019 07:00:00 6,6 3,8 41 22 46 25 ESE 1026,0 0,0
15.04.2019 06:00:00 6,4 3,6 42 23 48 26 ESE 1026,2 0,0
15.04.2019 05:00:00 6,4 3,6 39 21 46 25 ESE 1026,6 0,0
15.04.2019 04:00:00 6,6 3,6 39 21 48 26 ESE 1027,2 0,0
15.04.2019 03:00:00 6,5 3,0 39 21 46 25 ESE 1027,4 0,0
15.04.2019 02:00:00 6,3 2,9 35 19 - - ESE 1028,1 0,0
15.04.2019 01:00:00 6,2 2,3 37 20 46 25 SE 1028,4 0,0
15.04.2019 00:00:00 6,1 2,5 39 21 50 27 ESE 1028,4 0,0
14.04.2019 23:00:00 6,1 2,0 39 21 46 25 ESE 1028,2 0,0
14.04.2019 22:00:00 6,2 2,0 37 20 - - SE 1028,0 0,0
14.04.2019 21:00:00 5,9 1,4 35 19 - - ESE 1028,0 0,0
14.04.2019 20:00:00 6,1 1,6 35 19 - - ESE 1027,5 0,0
14.04.2019 19:00:00 6,3 1,0 34 18 - - ESE 1027,2 0,0
14.04.2019 18:00:00 6,7 0,8 34 18 - - ESE 1027,2 0,0
14.04.2019 17:00:00 7,0 1,8 34 18 - - ESE 1028,0 0,0
14.04.2019 16:00:00 7,8 1,7 39 21 48 26 ESE 1028,3 0,0
14.04.2019 15:00:00 8,1 2,1 41 22 50 27 ESE 1028,0 0,0
14.04.2019 14:00:00 7,6 1,5 39 21 48 26 ESE 1027,8 0,0
14.04.2019 13:00:00 8,2 1,2 41 22 48 26 ESE 1028,4 0,0
14.04.2019 12:00:00 7,6 1,2 35 19 - - E 1028,6 0,0
14.04.2019 11:00:00 8,1 2,4 35 19 52 28 ESE 1028,6 0,0
14.04.2019 10:00:00 6,2 3,3 31 17 46 25 E 1028,7 0,0
14.04.2019 09:00:00 6,6 1,7 34 18 46 25 ESE 1028,3 0,0
14.04.2019 08:00:00 6,4 1,7 35 19 - - E 1027,9 0,0
14.04.2019 07:00:00 6,3 1,6 37 20 - - E 1027,5 0,0
14.04.2019 06:00:00 6,0 0,9 37 20 - - E 1027,5 0,0
14.04.2019 05:00:00 5,8 0,2 21 11 - - ENE 1028,0 0,0
14.04.2019 04:00:00 5,3 -0,4 22 12 - - ENE 1028,2 0,0
14.04.2019 03:00:00 5,4 -1,0 22 12 - - E 1028,2 0,0
14.04.2019 02:00:00 5,5 -0,8 29 16 - - E 1028,2 0,0
14.04.2019 01:00:00 5,8 -0,6 29 16 - - ESE 1028,9 0,0
14.04.2019 00:00:00 5,8 0,3 26 14 - - ESE 1028,6 0,0
13.04.2019 23:00:00 5,7 -0,1 26 14 - - E 1028,7 0,0
13.04.2019 22:00:00 5,5 -0,8 26 14 - - E 1029,2 0,0
13.04.2019 21:00:00 5,4 -1,0 29 16 - - E 1029,3 0,0
13.04.2019 20:00:00 5,6 -1,3 34 18 - - E 1029,1 0,0
13.04.2019 19:00:00 5,6 -0,2 29 16 - - E 1029,2 0,0
13.04.2019 18:00:00 6,0 0,1 29 16 - - E 1029,4 0,0
13.04.2019 17:00:00 6,6 -0,6 34 18 - - E 1029,6 0,0
13.04.2019 16:00:00 7,7 0,0 26 14 - - E 1030,0 0,0
13.04.2019 15:00:00 7,3 -0,7 34 18 - - E 1030,4 0,0
13.04.2019 14:00:00 6,0 1,1 24 13 50 27 E 1030,3 0,0
13.04.2019 13:00:00 5,8 1,6 44 24 50 27 E 1030,3 0,0
13.04.2019 12:00:00 8,0 1,5 34 18 - - E 1030,2 0,0
13.04.2019 11:00:00 8,0 0,1 31 17 - - E 1030,7 0,0
13.04.2019 10:00:00 6,5 0,4 29 16 - - E 1030,7 0,0
13.04.2019 09:00:00 7,0 0,1 31 17 - - E 1030,4 0,0
13.04.2019 08:00:00 6,2 0,3 24 13 - - E 1030,2 0,0
13.04.2019 07:00:00 4,1 -0,5 16 9 - - ENE 1030,2 0,0
13.04.2019 06:00:00 3,7 -1,6 15 8 - - ENE 1030,1 0,0
13.04.2019 05:00:00 4,5 -1,2 21 11 - - E 1030,1 0,0
13.04.2019 04:00:00 4,1 -0,7 16 9 - - E 1030,0 0,0
13.04.2019 03:00:00 5,4 -0,3 22 12 - - E 1029,9 0,0
13.04.2019 02:00:00 5,6 -0,3 24 13 - - E 1029,9 0,0
13.04.2019 01:00:00 5,7 0,5 22 12 - - E 1029,8 0,0
13.04.2019 00:00:00 4,6 -1,4 15 8 - - ENE 1030,0 0,0

tt = temperature
td = dewpoint
ff = wind speed
fx = gusts
dd = wind direction
ppp = reduced air pressure
rr = precipitation

Next stations